sensor_id;sensor_type;location;lat;lon;timestamp;pressure;altitude;pressure_sealevel;temperature
63220;BMP180;49320;52.512;13.448;2023-02-21T00:00:35;100721.00;;;16.00
63220;BMP180;49320;52.512;13.448;2023-02-21T00:03:20;100714.00;;;16.00
63220;BMP180;49320;52.512;13.448;2023-02-21T00:06:09;100703.00;;;16.00
63220;BMP180;49320;52.512;13.448;2023-02-21T00:08:54;100706.00;;;16.00
63220;BMP180;49320;52.512;13.448;2023-02-21T00:11:43;100704.00;;;15.90
63220;BMP180;49320;52.512;13.448;2023-02-21T00:14:28;100706.00;;;15.90
63220;BMP180;49320;52.512;13.448;2023-02-21T00:17:14;100714.00;;;15.90
63220;BMP180;49320;52.512;13.448;2023-02-21T00:19:59;100692.00;;;15.90
63220;BMP180;49320;52.512;13.448;2023-02-21T00:22:45;100698.00;;;15.90
63220;BMP180;49320;52.512;13.448;2023-02-21T00:25:31;100703.00;;;15.80
63220;BMP180;49320;52.512;13.448;2023-02-21T00:28:16;100684.00;;;15.80
63220;BMP180;49320;52.512;13.448;2023-02-21T00:31:02;100687.00;;;15.80
63220;BMP180;49320;52.512;13.448;2023-02-21T00:33:47;100685.00;;;15.80
63220;BMP180;49320;52.512;13.448;2023-02-21T00:36:33;100684.00;;;15.80
63220;BMP180;49320;52.512;13.448;2023-02-21T00:39:18;100676.00;;;15.80
63220;BMP180;49320;52.512;13.448;2023-02-21T00:42:04;100671.00;;;15.80
63220;BMP180;49320;52.512;13.448;2023-02-21T00:44:50;100687.00;;;15.80
63220;BMP180;49320;52.512;13.448;2023-02-21T00:47:35;100676.00;;;15.80
63220;BMP180;49320;52.512;13.448;2023-02-21T00:50:21;100675.00;;;15.80
63220;BMP180;49320;52.512;13.448;2023-02-21T00:53:07;100683.00;;;15.80
63220;BMP180;49320;52.512;13.448;2023-02-21T00:55:52;100672.00;;;15.80
63220;BMP180;49320;52.512;13.448;2023-02-21T00:58:38;100675.00;;;15.80
63220;BMP180;49320;52.512;13.448;2023-02-21T01:01:23;100670.00;;;15.80
63220;BMP180;49320;52.512;13.448;2023-02-21T01:04:09;100656.00;;;15.80
63220;BMP180;49320;52.512;13.448;2023-02-21T01:06:54;100655.00;;;15.80
63220;BMP180;49320;52.512;13.448;2023-02-21T01:09:39;100655.00;;;15.80
63220;BMP180;49320;52.512;13.448;2023-02-21T01:12:25;100655.00;;;15.90
63220;BMP180;49320;52.512;13.448;2023-02-21T01:15:11;100655.00;;;15.90
63220;BMP180;49320;52.512;13.448;2023-02-21T01:17:57;100635.00;;;15.90
63220;BMP180;49320;52.512;13.448;2023-02-21T01:20:42;100652.00;;;15.90
63220;BMP180;49320;52.512;13.448;2023-02-21T01:23:28;100652.00;;;15.90
63220;BMP180;49320;52.512;13.448;2023-02-21T01:26:13;100645.00;;;15.90
63220;BMP180;49320;52.512;13.448;2023-02-21T01:28:58;100652.00;;;15.90
63220;BMP180;49320;52.512;13.448;2023-02-21T01:31:44;100635.00;;;15.90
63220;BMP180;49320;52.512;13.448;2023-02-21T01:34:29;100651.00;;;15.90
63220;BMP180;49320;52.512;13.448;2023-02-21T01:37:15;100651.00;;;15.90
63220;BMP180;49320;52.512;13.448;2023-02-21T01:40:00;100639.00;;;15.90
63220;BMP180;49320;52.512;13.448;2023-02-21T01:42:45;100629.00;;;15.90
63220;BMP180;49320;52.512;13.448;2023-02-21T01:48:20;100639.00;;;15.90
63220;BMP180;49320;52.512;13.448;2023-02-21T01:51:09;100629.00;;;15.90
63220;BMP180;49320;52.512;13.448;2023-02-21T01:53:56;100630.00;;;15.90
63220;BMP180;49320;52.512;13.448;2023-02-21T01:56:42;100636.00;;;15.90
63220;BMP180;49320;52.512;13.448;2023-02-21T01:59:28;100635.00;;;15.90
63220;BMP180;49320;52.512;13.448;2023-02-21T02:02:26;100630.00;;;16.00
63220;BMP180;49320;52.512;13.448;2023-02-21T02:05:13;100622.00;;;16.00
63220;BMP180;49320;52.512;13.448;2023-02-21T02:07:59;100624.00;;;16.00
63220;BMP180;49320;52.512;13.448;2023-02-21T02:10:48;100624.00;;;16.00
63220;BMP180;49320;52.512;13.448;2023-02-21T02:14:09;100609.00;;;16.10
63220;BMP180;49320;52.512;13.448;2023-02-21T02:16:49;100626.00;;;16.10
63220;BMP180;49320;52.512;13.448;2023-02-21T02:19:58;100623.00;;;16.10
63220;BMP180;49320;52.512;13.448;2023-02-21T02:23:02;100613.00;;;16.10
63220;BMP180;49320;52.512;13.448;2023-02-21T02:35:27;100610.00;;;16.10
63220;BMP180;49320;52.512;13.448;2023-02-21T02:38:12;100604.00;;;16.10
63220;BMP180;49320;52.512;13.448;2023-02-21T02:41:21;100618.00;;;16.10
63220;BMP180;49320;52.512;13.448;2023-02-21T02:44:19;100602.00;;;16.10
63220;BMP180;49320;52.512;13.448;2023-02-21T02:46:49;100612.00;;;16.10
63220;BMP180;49320;52.512;13.448;2023-02-21T02:49:21;100599.00;;;16.20
63220;BMP180;49320;52.512;13.448;2023-02-21T02:51:50;100596.00;;;16.20
63220;BMP180;49320;52.512;13.448;2023-02-21T02:54:17;100609.00;;;16.20
63220;BMP180;49320;52.512;13.448;2023-02-21T02:56:45;100610.00;;;16.20
63220;BMP180;49320;52.512;13.448;2023-02-21T02:59:26;100605.00;;;16.20
63220;BMP180;49320;52.512;13.448;2023-02-21T03:10:53;100596.00;;;16.20
63220;BMP180;49320;52.512;13.448;2023-02-21T03:13:39;100595.00;;;16.20
63220;BMP180;49320;52.512;13.448;2023-02-21T03:18:42;100592.00;;;16.30
63220;BMP180;49320;52.512;13.448;2023-02-21T03:21:34;100574.00;;;16.30
63220;BMP180;49320;52.512;13.448;2023-02-21T03:24:04;100588.00;;;16.30
63220;BMP180;49320;52.512;13.448;2023-02-21T03:26:35;100581.00;;;16.30
63220;BMP180;49320;52.512;13.448;2023-02-21T03:29:03;100600.00;;;16.30
63220;BMP180;49320;52.512;13.448;2023-02-21T03:31:38;100592.00;;;16.30
63220;BMP180;49320;52.512;13.448;2023-02-21T03:34:07;100595.00;;;16.40
63220;BMP180;49320;52.512;13.448;2023-02-21T03:36:36;100591.00;;;16.40
63220;BMP180;49320;52.512;13.448;2023-02-21T03:39:04;100594.00;;;16.40
63220;BMP180;49320;52.512;13.448;2023-02-21T03:41:31;100598.00;;;16.50
63220;BMP180;49320;52.512;13.448;2023-02-21T03:43:57;100606.00;;;16.50
63220;BMP180;49320;52.512;13.448;2023-02-21T03:46:24;100606.00;;;16.50
63220;BMP180;49320;52.512;13.448;2023-02-21T03:48:51;100611.00;;;16.50
63220;BMP180;49320;52.512;13.448;2023-02-21T03:51:19;100606.00;;;16.50
63220;BMP180;49320;52.512;13.448;2023-02-21T03:53:45;100602.00;;;16.50
63220;BMP180;49320;52.512;13.448;2023-02-21T03:56:12;100612.00;;;16.50
63220;BMP180;49320;52.512;13.448;2023-02-21T03:58:39;100621.00;;;16.50
63220;BMP180;49320;52.512;13.448;2023-02-21T04:01:06;100607.00;;;16.50
63220;BMP180;49320;52.512;13.448;2023-02-21T04:03:32;100609.00;;;16.60
63220;BMP180;49320;52.512;13.448;2023-02-21T04:05:59;100623.00;;;16.60
63220;BMP180;49320;52.512;13.448;2023-02-21T04:08:26;100615.00;;;16.60
63220;BMP180;49320;52.512;13.448;2023-02-21T04:10:53;100616.00;;;16.70
63220;BMP180;49320;52.512;13.448;2023-02-21T04:13:20;100619.00;;;16.70
63220;BMP180;49320;52.512;13.448;2023-02-21T04:15:49;100619.00;;;16.70
63220;BMP180;49320;52.512;13.448;2023-02-21T04:18:15;100617.00;;;16.70
63220;BMP180;49320;52.512;13.448;2023-02-21T04:20:42;100635.00;;;16.70
63220;BMP180;49320;52.512;13.448;2023-02-21T04:23:09;100632.00;;;16.70
63220;BMP180;49320;52.512;13.448;2023-02-21T04:25:36;100630.00;;;16.70
63220;BMP180;49320;52.512;13.448;2023-02-21T04:28:03;100625.00;;;16.80
63220;BMP180;49320;52.512;13.448;2023-02-21T04:30:30;100642.00;;;16.80
63220;BMP180;49320;52.512;13.448;2023-02-21T04:32:57;100636.00;;;16.80
63220;BMP180;49320;52.512;13.448;2023-02-21T04:35:23;100643.00;;;16.80
63220;BMP180;49320;52.512;13.448;2023-02-21T04:37:50;100643.00;;;16.90
63220;BMP180;49320;52.512;13.448;2023-02-21T04:40:17;100637.00;;;16.80
63220;BMP180;49320;52.512;13.448;2023-02-21T04:42:44;100632.00;;;16.80
63220;BMP180;49320;52.512;13.448;2023-02-21T04:45:11;100632.00;;;16.80
63220;BMP180;49320;52.512;13.448;2023-02-21T04:47:38;100641.00;;;16.80
63220;BMP180;49320;52.512;13.448;2023-02-21T04:50:06;100631.00;;;16.80
63220;BMP180;49320;52.512;13.448;2023-02-21T04:52:32;100629.00;;;16.80
63220;BMP180;49320;52.512;13.448;2023-02-21T04:54:59;100630.00;;;16.80
63220;BMP180;49320;52.512;13.448;2023-02-21T04:57:26;100644.00;;;16.80
63220;BMP180;49320;52.512;13.448;2023-02-21T04:59:58;100637.00;;;16.80
63220;BMP180;49320;52.512;13.448;2023-02-21T05:02:26;100642.00;;;16.80
63220;BMP180;49320;52.512;13.448;2023-02-21T05:04:53;100627.00;;;16.70
63220;BMP180;49320;52.512;13.448;2023-02-21T05:07:20;100633.00;;;16.70
63220;BMP180;49320;52.512;13.448;2023-02-21T05:09:47;100633.00;;;16.70
63220;BMP180;49320;52.512;13.448;2023-02-21T05:12:15;100646.00;;;16.70
63220;BMP180;49320;52.512;13.448;2023-02-21T05:14:42;100650.00;;;16.60
63220;BMP180;49320;52.512;13.448;2023-02-21T05:17:09;100629.00;;;16.60
63220;BMP180;49320;52.512;13.448;2023-02-21T05:19:36;100636.00;;;16.60
63220;BMP180;49320;52.512;13.448;2023-02-21T05:22:03;100635.00;;;16.60
63220;BMP180;49320;52.512;13.448;2023-02-21T05:24:33;100633.00;;;16.50
63220;BMP180;49320;52.512;13.448;2023-02-21T05:27:01;100644.00;;;16.50
63220;BMP180;49320;52.512;13.448;2023-02-21T05:29:28;100648.00;;;16.50
63220;BMP180;49320;52.512;13.448;2023-02-21T05:31:55;100648.00;;;16.50
63220;BMP180;49320;52.512;13.448;2023-02-21T05:34:22;100645.00;;;16.50
63220;BMP180;49320;52.512;13.448;2023-02-21T05:36:48;100657.00;;;16.50
63220;BMP180;49320;52.512;13.448;2023-02-21T05:39:15;100653.00;;;16.40
63220;BMP180;49320;52.512;13.448;2023-02-21T05:41:47;100658.00;;;16.40
63220;BMP180;49320;52.512;13.448;2023-02-21T05:44:15;100655.00;;;16.40
63220;BMP180;49320;52.512;13.448;2023-02-21T05:46:42;100652.00;;;16.30
63220;BMP180;49320;52.512;13.448;2023-02-21T05:49:11;100655.00;;;16.40
63220;BMP180;49320;52.512;13.448;2023-02-21T05:51:42;100659.00;;;16.40
63220;BMP180;49320;52.512;13.448;2023-02-21T05:54:14;100666.00;;;16.40
63220;BMP180;49320;52.512;13.448;2023-02-21T05:56:43;100665.00;;;16.30
63220;BMP180;49320;52.512;13.448;2023-02-21T05:59:12;100669.00;;;16.30
63220;BMP180;49320;52.512;13.448;2023-02-21T06:01:39;100661.00;;;16.30
63220;BMP180;49320;52.512;13.448;2023-02-21T06:04:07;100680.00;;;16.30
63220;BMP180;49320;52.512;13.448;2023-02-21T06:06:34;100683.00;;;16.30
63220;BMP180;49320;52.512;13.448;2023-02-21T06:09:03;100689.00;;;16.30
63220;BMP180;49320;52.512;13.448;2023-02-21T06:11:33;100695.00;;;16.20
63220;BMP180;49320;52.512;13.448;2023-02-21T06:14:01;100694.00;;;16.20
63220;BMP180;49320;52.512;13.448;2023-02-21T06:16:34;100701.00;;;16.20
63220;BMP180;49320;52.512;13.448;2023-02-21T06:19:04;100702.00;;;16.20
63220;BMP180;49320;52.512;13.448;2023-02-21T06:21:31;100699.00;;;16.20
63220;BMP180;49320;52.512;13.448;2023-02-21T06:23:58;100709.00;;;16.20
63220;BMP180;49320;52.512;13.448;2023-02-21T06:26:26;100709.00;;;16.20
63220;BMP180;49320;52.512;13.448;2023-02-21T06:28:53;100713.00;;;16.20
63220;BMP180;49320;52.512;13.448;2023-02-21T06:31:21;100703.00;;;16.30
63220;BMP180;49320;52.512;13.448;2023-02-21T06:33:48;100708.00;;;16.30
63220;BMP180;49320;52.512;13.448;2023-02-21T06:36:20;100722.00;;;16.30
63220;BMP180;49320;52.512;13.448;2023-02-21T06:38:50;100713.00;;;16.30
63220;BMP180;49320;52.512;13.448;2023-02-21T06:41:24;100719.00;;;16.30
63220;BMP180;49320;52.512;13.448;2023-02-21T06:43:56;100715.00;;;16.30
63220;BMP180;49320;52.512;13.448;2023-02-21T06:46:27;100730.00;;;16.30
63220;BMP180;49320;52.512;13.448;2023-02-21T06:48:54;100731.00;;;16.40
63220;BMP180;49320;52.512;13.448;2023-02-21T06:51:21;100737.00;;;16.40
63220;BMP180;49320;52.512;13.448;2023-02-21T06:53:56;100740.00;;;16.40
63220;BMP180;49320;52.512;13.448;2023-02-21T06:56:23;100750.00;;;16.40
63220;BMP180;49320;52.512;13.448;2023-02-21T06:58:50;100756.00;;;16.40
63220;BMP180;49320;52.512;13.448;2023-02-21T07:01:17;100757.00;;;16.40
63220;BMP180;49320;52.512;13.448;2023-02-21T07:03:45;100746.00;;;16.40
63220;BMP180;49320;52.512;13.448;2023-02-21T07:06:12;100769.00;;;16.40
63220;BMP180;49320;52.512;13.448;2023-02-21T07:08:40;100767.00;;;16.40
63220;BMP180;49320;52.512;13.448;2023-02-21T07:11:07;100767.00;;;16.40
63220;BMP180;49320;52.512;13.448;2023-02-21T07:13:34;100784.00;;;16.40
63220;BMP180;49320;52.512;13.448;2023-02-21T07:16:02;100770.00;;;16.40
63220;BMP180;49320;52.512;13.448;2023-02-21T07:18:29;100780.00;;;16.30
63220;BMP180;49320;52.512;13.448;2023-02-21T07:20:56;100788.00;;;16.30
63220;BMP180;49320;52.512;13.448;2023-02-21T07:23:23;100793.00;;;16.40
63220;BMP180;49320;52.512;13.448;2023-02-21T07:25:50;100802.00;;;16.40
63220;BMP180;49320;52.512;13.448;2023-02-21T07:28:17;100806.00;;;16.40
63220;BMP180;49320;52.512;13.448;2023-02-21T07:30:43;100808.00;;;16.40
63220;BMP180;49320;52.512;13.448;2023-02-21T07:33:12;100805.00;;;16.40
63220;BMP180;49320;52.512;13.448;2023-02-21T07:35:38;100805.00;;;16.40
63220;BMP180;49320;52.512;13.448;2023-02-21T07:38:05;100811.00;;;16.40
63220;BMP180;49320;52.512;13.448;2023-02-21T07:40:32;100807.00;;;16.30
63220;BMP180;49320;52.512;13.448;2023-02-21T07:42:59;100817.00;;;16.30
63220;BMP180;49320;52.512;13.448;2023-02-21T07:45:26;100815.00;;;16.30
63220;BMP180;49320;52.512;13.448;2023-02-21T07:47:52;100821.00;;;16.30
63220;BMP180;49320;52.512;13.448;2023-02-21T07:50:19;100808.00;;;16.30
63220;BMP180;49320;52.512;13.448;2023-02-21T07:52:49;100814.00;;;16.30
63220;BMP180;49320;52.512;13.448;2023-02-21T07:55:16;100808.00;;;16.40
63220;BMP180;49320;52.512;13.448;2023-02-21T07:57:44;100810.00;;;16.40
63220;BMP180;49320;52.512;13.448;2023-02-21T08:00:11;100811.00;;;16.40
63220;BMP180;49320;52.512;13.448;2023-02-21T08:02:38;100811.00;;;16.50
63220;BMP180;49320;52.512;13.448;2023-02-21T08:05:07;100815.00;;;16.50
63220;BMP180;49320;52.512;13.448;2023-02-21T08:07:34;100824.00;;;16.50
63220;BMP180;49320;52.512;13.448;2023-02-21T08:10:00;100838.00;;;16.50
63220;BMP180;49320;52.512;13.448;2023-02-21T08:12:27;100835.00;;;16.50
63220;BMP180;49320;52.512;13.448;2023-02-21T08:14:54;100830.00;;;16.50
63220;BMP180;49320;52.512;13.448;2023-02-21T08:17:21;100847.00;;;16.50
63220;BMP180;49320;52.512;13.448;2023-02-21T08:19:48;100844.00;;;16.60
63220;BMP180;49320;52.512;13.448;2023-02-21T08:22:15;100846.00;;;16.60
63220;BMP180;49320;52.512;13.448;2023-02-21T08:24:42;100846.00;;;16.60
63220;BMP180;49320;52.512;13.448;2023-02-21T08:27:09;100839.00;;;16.70
63220;BMP180;49320;52.512;13.448;2023-02-21T08:29:35;100846.00;;;16.70
63220;BMP180;49320;52.512;13.448;2023-02-21T08:32:02;100836.00;;;16.80
63220;BMP180;49320;52.512;13.448;2023-02-21T08:34:29;100860.00;;;16.80
63220;BMP180;49320;52.512;13.448;2023-02-21T08:36:56;100865.00;;;16.80
63220;BMP180;49320;52.512;13.448;2023-02-21T08:39:23;100858.00;;;16.80
63220;BMP180;49320;52.512;13.448;2023-02-21T08:41:50;100859.00;;;16.90
63220;BMP180;49320;52.512;13.448;2023-02-21T08:44:18;100860.00;;;16.90
63220;BMP180;49320;52.512;13.448;2023-02-21T08:46:47;100866.00;;;16.90
63220;BMP180;49320;52.512;13.448;2023-02-21T08:49:15;100870.00;;;16.90
63220;BMP180;49320;52.512;13.448;2023-02-21T08:51:42;100860.00;;;17.00
63220;BMP180;49320;52.512;13.448;2023-02-21T08:54:09;100864.00;;;17.00
63220;BMP180;49320;52.512;13.448;2023-02-21T08:56:36;100878.00;;;17.10
63220;BMP180;49320;52.512;13.448;2023-02-21T08:59:03;100867.00;;;17.10
63220;BMP180;49320;52.512;13.448;2023-02-21T09:01:34;100876.00;;;17.20
63220;BMP180;49320;52.512;13.448;2023-02-21T09:04:03;100883.00;;;17.30
63220;BMP180;49320;52.512;13.448;2023-02-21T09:06:30;100883.00;;;17.40
63220;BMP180;49320;52.512;13.448;2023-02-21T09:08:57;100872.00;;;17.40
63220;BMP180;49320;52.512;13.448;2023-02-21T09:11:24;100881.00;;;17.50
63220;BMP180;49320;52.512;13.448;2023-02-21T09:13:51;100875.00;;;17.50
63220;BMP180;49320;52.512;13.448;2023-02-21T09:16:21;100872.00;;;17.50
63220;BMP180;49320;52.512;13.448;2023-02-21T09:18:59;100877.00;;;17.50
63220;BMP180;49320;52.512;13.448;2023-02-21T09:21:33;100886.00;;;17.40
63220;BMP180;49320;52.512;13.448;2023-02-21T09:24:00;100885.00;;;17.40
63220;BMP180;49320;52.512;13.448;2023-02-21T09:26:28;100880.00;;;17.40
63220;BMP180;49320;52.512;13.448;2023-02-21T09:28:58;100888.00;;;17.50
63220;BMP180;49320;52.512;13.448;2023-02-21T09:31:25;100905.00;;;17.50
63220;BMP180;49320;52.512;13.448;2023-02-21T09:33:52;100906.00;;;17.40
63220;BMP180;49320;52.512;13.448;2023-02-21T09:36:19;100899.00;;;17.40
63220;BMP180;49320;52.512;13.448;2023-02-21T09:38:50;100898.00;;;17.40
63220;BMP180;49320;52.512;13.448;2023-02-21T09:41:18;100903.00;;;17.50
63220;BMP180;49320;52.512;13.448;2023-02-21T09:43:50;100899.00;;;17.50
63220;BMP180;49320;52.512;13.448;2023-02-21T09:46:26;100915.00;;;17.60
63220;BMP180;49320;52.512;13.448;2023-02-21T09:48:55;100911.00;;;17.60
63220;BMP180;49320;52.512;13.448;2023-02-21T09:51:22;100910.00;;;17.60
63220;BMP180;49320;52.512;13.448;2023-02-21T09:53:55;100920.00;;;17.50
63220;BMP180;49320;52.512;13.448;2023-02-21T09:56:38;100922.00;;;17.50
63220;BMP180;49320;52.512;13.448;2023-02-21T09:59:11;100910.00;;;17.50
63220;BMP180;49320;52.512;13.448;2023-02-21T10:08:00;100923.00;;;17.50
63220;BMP180;49320;52.512;13.448;2023-02-21T10:10:56;100929.00;;;17.50
63220;BMP180;49320;52.512;13.448;2023-02-21T10:13:45;100929.00;;;17.50
63220;BMP180;49320;52.512;13.448;2023-02-21T10:16:24;100939.00;;;17.60
63220;BMP180;49320;52.512;13.448;2023-02-21T10:19:12;100925.00;;;17.70
63220;BMP180;49320;52.512;13.448;2023-02-21T10:21:43;100937.00;;;17.70
63220;BMP180;49320;52.512;13.448;2023-02-21T10:24:23;100937.00;;;17.70
63220;BMP180;49320;52.512;13.448;2023-02-21T10:27:06;100936.00;;;17.70
63220;BMP180;49320;52.512;13.448;2023-02-21T10:30:02;100947.00;;;17.70
63220;BMP180;49320;52.512;13.448;2023-02-21T10:32:31;100949.00;;;17.70
63220;BMP180;49320;52.512;13.448;2023-02-21T10:34:58;100954.00;;;17.70
63220;BMP180;49320;52.512;13.448;2023-02-21T10:37:55;100954.00;;;17.80
63220;BMP180;49320;52.512;13.448;2023-02-21T10:40:39;100956.00;;;17.80
63220;BMP180;49320;52.512;13.448;2023-02-21T10:43:43;100929.00;;;17.80
63220;BMP180;49320;52.512;13.448;2023-02-21T10:46:22;100944.00;;;17.80
63220;BMP180;49320;52.512;13.448;2023-02-21T10:49:03;100943.00;;;17.80
63220;BMP180;49320;52.512;13.448;2023-02-21T10:51:38;100942.00;;;17.80
63220;BMP180;49320;52.512;13.448;2023-02-21T10:54:22;100957.00;;;17.90
63220;BMP180;49320;52.512;13.448;2023-02-21T10:56:51;100947.00;;;17.80
63220;BMP180;49320;52.512;13.448;2023-02-21T10:59:27;100953.00;;;17.80
63220;BMP180;49320;52.512;13.448;2023-02-21T11:01:56;100953.00;;;17.90
63220;BMP180;49320;52.512;13.448;2023-02-21T11:04:34;100954.00;;;17.90
63220;BMP180;49320;52.512;13.448;2023-02-21T11:07:08;100952.00;;;18.00
63220;BMP180;49320;52.512;13.448;2023-02-21T11:09:42;100951.00;;;18.00
63220;BMP180;49320;52.512;13.448;2023-02-21T11:17:30;100950.00;;;17.90
63220;BMP180;49320;52.512;13.448;2023-02-21T11:20:18;100946.00;;;17.90
63220;BMP180;49320;52.512;13.448;2023-02-21T11:22:48;100944.00;;;17.90
63220;BMP180;49320;52.512;13.448;2023-02-21T11:25:28;100953.00;;;17.90
63220;BMP180;49320;52.512;13.448;2023-02-21T11:31:14;100951.00;;;17.80
63220;BMP180;49320;52.512;13.448;2023-02-21T11:33:58;100945.00;;;17.80
63220;BMP180;49320;52.512;13.448;2023-02-21T11:36:29;100964.00;;;17.70
63220;BMP180;49320;52.512;13.448;2023-02-21T11:39:21;100947.00;;;17.70
63220;BMP180;49320;52.512;13.448;2023-02-21T11:42:01;100950.00;;;17.70
63220;BMP180;49320;52.512;13.448;2023-02-21T11:48:10;100968.00;;;17.70
63220;BMP180;49320;52.512;13.448;2023-02-21T11:50:45;100949.00;;;17.70
63220;BMP180;49320;52.512;13.448;2023-02-21T11:53:28;100953.00;;;17.70
63220;BMP180;49320;52.512;13.448;2023-02-21T11:56:33;100948.00;;;17.80
63220;BMP180;49320;52.512;13.448;2023-02-21T11:59:24;100958.00;;;17.80
63220;BMP180;49320;52.512;13.448;2023-02-21T12:05:17;100954.00;;;17.80
63220;BMP180;49320;52.512;13.448;2023-02-21T12:11:05;100948.00;;;17.80
63220;BMP180;49320;52.512;13.448;2023-02-21T12:14:16;100959.00;;;17.80
63220;BMP180;49320;52.512;13.448;2023-02-21T12:17:13;100969.00;;;17.80
63220;BMP180;49320;52.512;13.448;2023-02-21T12:20:07;100948.00;;;17.80
63220;BMP180;49320;52.512;13.448;2023-02-21T12:23:15;100965.00;;;17.80
63220;BMP180;49320;52.512;13.448;2023-02-21T12:31:51;100965.00;;;17.70
63220;BMP180;49320;52.512;13.448;2023-02-21T12:37:51;100958.00;;;17.70
63220;BMP180;49320;52.512;13.448;2023-02-21T12:40:32;100953.00;;;17.70
63220;BMP180;49320;52.512;13.448;2023-02-21T12:49:25;100964.00;;;17.90
63220;BMP180;49320;52.512;13.448;2023-02-21T12:52:05;100963.00;;;17.90
63220;BMP180;49320;52.512;13.448;2023-02-21T12:54:39;100959.00;;;18.00
63220;BMP180;49320;52.512;13.448;2023-02-21T12:57:17;100959.00;;;18.00
63220;BMP180;49320;52.512;13.448;2023-02-21T13:02:59;100957.00;;;18.00
63220;BMP180;49320;52.512;13.448;2023-02-21T13:05:47;100961.00;;;18.00
63220;BMP180;49320;52.512;13.448;2023-02-21T13:08:25;100953.00;;;17.90
63220;BMP180;49320;52.512;13.448;2023-02-21T13:11:24;100940.00;;;17.90
63220;BMP180;49320;52.512;13.448;2023-02-21T13:13:52;100953.00;;;17.80
63220;BMP180;49320;52.512;13.448;2023-02-21T13:16:19;100942.00;;;17.80
63220;BMP180;49320;52.512;13.448;2023-02-21T13:19:00;100944.00;;;17.80
63220;BMP180;49320;52.512;13.448;2023-02-21T13:21:54;100951.00;;;17.90
63220;BMP180;49320;52.512;13.448;2023-02-21T13:24:50;100948.00;;;17.90
63220;BMP180;49320;52.512;13.448;2023-02-21T13:27:48;100946.00;;;17.90
63220;BMP180;49320;52.512;13.448;2023-02-21T13:30:38;100955.00;;;17.90
63220;BMP180;49320;52.512;13.448;2023-02-21T13:33:06;100953.00;;;17.90
63220;BMP180;49320;52.512;13.448;2023-02-21T13:35:38;100952.00;;;17.90
63220;BMP180;49320;52.512;13.448;2023-02-21T13:38:09;100949.00;;;17.80
63220;BMP180;49320;52.512;13.448;2023-02-21T13:40:46;100950.00;;;17.80
63220;BMP180;49320;52.512;13.448;2023-02-21T13:43:29;100943.00;;;17.80
63220;BMP180;49320;52.512;13.448;2023-02-21T13:46:25;100947.00;;;17.80
63220;BMP180;49320;52.512;13.448;2023-02-21T13:49:42;100951.00;;;17.80
63220;BMP180;49320;52.512;13.448;2023-02-21T13:57:48;100951.00;;;17.90
63220;BMP180;49320;52.512;13.448;2023-02-21T14:08:44;100953.00;;;17.80
63220;BMP180;49320;52.512;13.448;2023-02-21T14:11:21;100953.00;;;17.70
63220;BMP180;49320;52.512;13.448;2023-02-21T14:17:01;100961.00;;;17.60
63220;BMP180;49320;52.512;13.448;2023-02-21T14:22:13;100949.00;;;17.60
63220;BMP180;49320;52.512;13.448;2023-02-21T14:24:45;100961.00;;;17.50
63220;BMP180;49320;52.512;13.448;2023-02-21T14:30:29;100957.00;;;17.50
63220;BMP180;49320;52.512;13.448;2023-02-21T14:32:44;100962.00;;;17.50
63220;BMP180;49320;52.512;13.448;2023-02-21T14:35:32;100956.00;;;17.60
63220;BMP180;49320;52.512;13.448;2023-02-21T14:38:15;100963.00;;;17.50
63220;BMP180;49320;52.512;13.448;2023-02-21T14:41:08;100959.00;;;17.60
63220;BMP180;49320;52.512;13.448;2023-02-21T14:43:53;100957.00;;;17.60
63220;BMP180;49320;52.512;13.448;2023-02-21T14:46:43;100971.00;;;17.60
63220;BMP180;49320;52.512;13.448;2023-02-21T14:49:43;100976.00;;;17.60
63220;BMP180;49320;52.512;13.448;2023-02-21T14:58:49;100961.00;;;17.50
63220;BMP180;49320;52.512;13.448;2023-02-21T15:01:44;100964.00;;;17.50
63220;BMP180;49320;52.512;13.448;2023-02-21T15:12:54;100977.00;;;17.40
63220;BMP180;49320;52.512;13.448;2023-02-21T15:15:26;100979.00;;;17.40
63220;BMP180;49320;52.512;13.448;2023-02-21T15:18:00;100985.00;;;17.40
63220;BMP180;49320;52.512;13.448;2023-02-21T15:20:28;100985.00;;;17.30
63220;BMP180;49320;52.512;13.448;2023-02-21T15:23:15;100985.00;;;17.30
63220;BMP180;49320;52.512;13.448;2023-02-21T15:25:44;100983.00;;;17.30
63220;BMP180;49320;52.512;13.448;2023-02-21T15:28:23;100985.00;;;17.30
63220;BMP180;49320;52.512;13.448;2023-02-21T15:31:03;100992.00;;;17.30
63220;BMP180;49320;52.512;13.448;2023-02-21T15:33:37;100999.00;;;17.30
63220;BMP180;49320;52.512;13.448;2023-02-21T15:36:20;100995.00;;;17.30
63220;BMP180;49320;52.512;13.448;2023-02-21T15:39:19;100994.00;;;17.40
63220;BMP180;49320;52.512;13.448;2023-02-21T15:41:50;101003.00;;;17.30
63220;BMP180;49320;52.512;13.448;2023-02-21T15:44:36;101006.00;;;17.30
63220;BMP180;49320;52.512;13.448;2023-02-21T15:47:12;101011.00;;;17.30
63220;BMP180;49320;52.512;13.448;2023-02-21T15:52:45;101010.00;;;17.30
63220;BMP180;49320;52.512;13.448;2023-02-21T15:58:24;101018.00;;;17.20
63220;BMP180;49320;52.512;13.448;2023-02-21T16:01:05;101014.00;;;17.10
63220;BMP180;49320;52.512;13.448;2023-02-21T16:03:40;101030.00;;;17.10
63220;BMP180;49320;52.512;13.448;2023-02-21T16:06:21;101022.00;;;17.10
63220;BMP180;49320;52.512;13.448;2023-02-21T16:09:01;101035.00;;;17.00
63220;BMP180;49320;52.512;13.448;2023-02-21T16:11:51;101027.00;;;17.00
63220;BMP180;49320;52.512;13.448;2023-02-21T16:14:44;101032.00;;;16.90
63220;BMP180;49320;52.512;13.448;2023-02-21T16:17:34;101028.00;;;16.90
63220;BMP180;49320;52.512;13.448;2023-02-21T16:20:13;101020.00;;;16.90
63220;BMP180;49320;52.512;13.448;2023-02-21T16:22:47;101014.00;;;16.80